createdAt,value
2018-12-12T00:02:05.388Z,11.00
2018-12-12T00:04:40.819Z,10.70
2018-12-12T00:10:20.584Z,10.70
2018-12-12T00:12:56.607Z,9.90
2018-12-12T00:15:32.679Z,9.90
2018-12-12T00:18:08.148Z,9.73
2018-12-12T00:20:47.640Z,11.63
2018-12-12T00:23:23.751Z,10.23
2018-12-12T00:26:00.059Z,11.00
2018-12-12T00:28:32.109Z,12.17
2018-12-12T00:31:14.208Z,11.83
2018-12-12T00:33:52.225Z,8.77
2018-12-12T00:36:26.038Z,10.50
2018-12-12T00:38:57.276Z,9.50
2018-12-12T00:41:30.488Z,9.30
2018-12-12T00:44:02.493Z,11.17
2018-12-12T00:46:41.928Z,9.20
2018-12-12T00:49:15.171Z,11.10
2018-12-12T00:51:48.544Z,10.43
2018-12-12T00:54:23.819Z,9.87
2018-12-12T00:57:03.144Z,11.30
2018-12-12T00:59:37.139Z,11.43
2018-12-12T01:02:08.643Z,11.43
2018-12-12T01:04:44.355Z,12.93
2018-12-12T01:07:17.624Z,11.77
2018-12-12T01:09:51.571Z,10.53
2018-12-12T01:12:25.100Z,10.27
2018-12-12T01:14:58.476Z,11.50
2018-12-12T01:17:31.746Z,11.37
2018-12-12T01:20:15.528Z,11.20
2018-12-12T01:23:03.808Z,10.77
2018-12-12T01:25:39.423Z,12.07
2018-12-12T01:28:14.747Z,11.10
2018-12-12T01:30:48.112Z,11.60
2018-12-12T01:33:23.460Z,9.80
2018-12-12T01:36:05.027Z,12.77
2018-12-12T01:38:47.157Z,11.47
2018-12-12T01:41:20.646Z,11.60
2018-12-12T01:43:56.580Z,13.07
2018-12-12T01:46:32.551Z,12.53
2018-12-12T01:49:08.560Z,12.87
2018-12-12T01:51:43.871Z,13.77
2018-12-12T01:54:19.913Z,13.77
2018-12-12T01:56:56.088Z,13.30
2018-12-12T01:59:31.511Z,13.63
2018-12-12T02:02:07.760Z,12.77
2018-12-12T02:04:45.171Z,12.87
2018-12-12T02:07:18.780Z,11.00
2018-12-12T02:09:50.096Z,10.20
2018-12-12T02:12:23.196Z,11.53
2018-12-12T02:14:56.451Z,12.50
2018-12-12T02:17:31.956Z,11.90
2018-12-12T02:20:12.265Z,14.03
2018-12-12T02:22:44.350Z,13.20
2018-12-12T02:25:18.387Z,13.90
2018-12-12T02:27:52.176Z,13.93
2018-12-12T02:30:34.445Z,14.13
2018-12-12T02:33:10.286Z,10.83
2018-12-12T02:38:17.184Z,8.80
2018-12-12T02:40:52.780Z,9.43
2018-12-12T02:43:25.969Z,8.87
2018-12-12T02:45:59.064Z,7.97
2018-12-12T02:48:40.833Z,7.60
2018-12-12T02:51:22.799Z,8.43
2018-12-12T02:53:54.212Z,9.90
2018-12-12T02:56:29.826Z,9.03
2018-12-12T02:59:05.712Z,9.63
2018-12-12T03:01:39.598Z,8.90
2018-12-12T03:04:15.051Z,9.83
2018-12-12T03:06:57.428Z,8.23
2018-12-12T03:09:30.841Z,9.97
2018-12-12T03:12:04.627Z,7.87
2018-12-12T03:14:40.921Z,7.40
2018-12-12T03:17:23.055Z,8.50
2018-12-12T03:19:58.892Z,9.27
2018-12-12T03:22:32.880Z,9.07
2018-12-12T03:25:04.365Z,7.23
2018-12-12T03:27:40.599Z,7.50
2018-12-12T03:30:12.376Z,7.00
2018-12-12T03:32:51.704Z,7.77
2018-12-12T03:35:24.892Z,9.03
2018-12-12T03:40:31.817Z,8.27
2018-12-12T03:43:05.765Z,10.73
2018-12-12T03:45:39.768Z,9.63
2018-12-12T03:48:13.279Z,9.07
2018-12-12T03:50:46.764Z,10.73
2018-12-12T03:53:20.832Z,12.80
2018-12-12T03:55:54.643Z,10.47
2018-12-12T03:58:28.129Z,12.00
2018-12-12T04:01:01.327Z,10.57
2018-12-12T04:03:34.823Z,11.97
2018-12-12T04:06:16.553Z,9.43
2018-12-12T04:08:48.125Z,8.30
2018-12-12T04:11:29.832Z,8.57
2018-12-12T04:14:06.038Z,8.13
2018-12-12T04:16:42.863Z,9.13
2018-12-12T04:19:14.444Z,9.77
2018-12-12T04:21:56.239Z,10.07
2018-12-12T04:24:28.443Z,9.67
2018-12-12T04:27:03.839Z,10.03
2018-12-12T04:29:41.092Z,11.00
2018-12-12T04:32:15.142Z,9.47
2018-12-12T04:34:48.912Z,10.33
2018-12-12T04:37:22.101Z,10.97
2018-12-12T04:39:53.905Z,10.33
2018-12-12T04:42:36.268Z,10.97
2018-12-12T04:45:12.392Z,12.80
2018-12-12T04:47:48.533Z,10.43
2018-12-12T04:50:24.763Z,12.47
2018-12-12T04:53:00.323Z,14.00
2018-12-12T04:55:32.156Z,11.60
2018-12-12T04:58:05.359Z,10.53
2018-12-12T05:00:40.680Z,11.43
2018-12-12T05:03:13.799Z,11.70
2018-12-12T05:05:55.427Z,11.43
2018-12-12T05:08:29.364Z,9.63
2018-12-12T05:11:05.532Z,11.20
2018-12-12T05:13:39.475Z,11.17
2018-12-12T05:16:15.994Z,10.43
2018-12-12T05:18:49.636Z,9.73
2018-12-12T05:21:21.073Z,9.87
2018-12-12T05:23:54.362Z,9.57
2018-12-12T05:26:27.855Z,9.60
2018-12-12T05:29:01.149Z,8.40
2018-12-12T05:31:36.573Z,8.00
2018-12-12T05:34:08.870Z,7.20
2018-12-12T05:36:40.676Z,8.60
2018-12-12T05:39:20.392Z,8.60
2018-12-12T05:41:52.280Z,7.30
2018-12-12T05:47:00.255Z,8.53
2018-12-12T05:49:42.274Z,8.40
2018-12-12T05:52:26.239Z,8.43
2018-12-12T05:55:08.299Z,9.43
2018-12-12T05:57:44.493Z,8.97
2018-12-12T06:00:24.276Z,10.80
2018-12-12T06:02:59.610Z,9.87
2018-12-12T06:05:34.916Z,8.70
2018-12-12T06:08:18.385Z,9.93
2018-12-12T06:10:54.327Z,8.90
2018-12-12T06:13:36.630Z,11.60
2018-12-12T06:16:12.427Z,10.33
2018-12-12T06:18:45.575Z,11.70
2018-12-12T06:21:20.999Z,10.13
2018-12-12T06:23:52.932Z,11.97
2018-12-12T06:26:26.526Z,13.10
2018-12-12T06:29:00.788Z,12.67
2018-12-12T06:31:36.299Z,10.40
2018-12-12T06:34:18.808Z,10.77
2018-12-12T06:37:02.940Z,9.27
2018-12-12T06:39:41.165Z,9.40
2018-12-12T06:42:17.333Z,9.87
2018-12-12T06:44:59.000Z,9.77
2018-12-12T06:47:39.079Z,11.67
2018-12-12T06:50:20.351Z,10.83
2018-12-12T06:52:55.767Z,10.63
2018-12-12T06:55:31.791Z,11.03
2018-12-12T06:58:05.712Z,10.03
2018-12-12T07:00:41.240Z,9.80
2018-12-12T07:03:17.545Z,8.90
2018-12-12T07:05:58.397Z,9.27
2018-12-12T07:08:38.525Z,8.43
2018-12-12T07:11:14.632Z,10.63
2018-12-12T07:13:50.681Z,8.50
2018-12-12T07:16:28.284Z,7.53
2018-12-12T07:18:59.612Z,8.13
2018-12-12T07:21:35.009Z,7.80
2018-12-12T07:24:08.916Z,8.37
2018-12-12T07:26:48.275Z,7.60
2018-12-12T07:29:21.425Z,8.77
2018-12-12T07:31:56.804Z,8.00
2018-12-12T07:34:32.792Z,7.07
2018-12-12T07:37:05.909Z,7.80
2018-12-12T07:39:39.393Z,7.20
2018-12-12T07:42:15.072Z,8.57
2018-12-12T07:45:02.588Z,6.93
2018-12-12T07:53:03.200Z,6.67
2018-12-12T07:55:52.204Z,6.73
2018-12-12T07:58:27.890Z,6.30
2018-12-12T08:01:06.190Z,5.77
2018-12-12T08:03:48.500Z,5.50
2018-12-12T08:06:24.003Z,5.93
2018-12-12T08:08:57.901Z,5.90
2018-12-12T08:11:39.823Z,6.23
2018-12-12T08:14:19.528Z,9.13
2018-12-12T08:16:55.373Z,7.90
2018-12-12T08:19:32.348Z,6.90
2018-12-12T08:22:08.593Z,6.30
2018-12-12T08:24:44.627Z,6.97
2018-12-12T08:27:16.231Z,5.60
2018-12-12T08:29:51.814Z,6.17
2018-12-12T08:32:35.441Z,5.70
2018-12-12T08:35:18.476Z,5.00
2018-12-12T08:37:55.715Z,6.80
2018-12-12T08:40:37.697Z,5.87
2018-12-12T08:43:17.580Z,6.27
2018-12-12T08:45:56.909Z,8.00
2018-12-12T08:48:30.023Z,10.17
2018-12-12T08:51:05.625Z,8.90
2018-12-12T08:56:16.659Z,10.03
2018-12-12T08:58:52.944Z,13.50
2018-12-12T09:01:27.027Z,11.07
2018-12-12T09:06:57.050Z,9.03
2018-12-12T09:09:40.388Z,8.77
2018-12-12T09:12:24.160Z,10.07
2018-12-12T09:15:01.988Z,10.53
2018-12-12T09:17:39.020Z,9.80
2018-12-12T09:20:17.120Z,9.90
2018-12-12T09:22:54.196Z,11.47
2018-12-12T09:25:36.128Z,11.70
2018-12-12T09:28:09.887Z,13.63
2018-12-12T09:30:47.500Z,16.97
2018-12-12T09:33:29.068Z,11.10
2018-12-12T09:36:07.220Z,10.70
2018-12-12T09:38:41.151Z,8.87
2018-12-12T09:41:22.969Z,8.13
2018-12-12T09:43:58.788Z,8.80
2018-12-12T09:46:35.896Z,8.87
2018-12-12T09:49:18.718Z,8.20
2018-12-12T09:52:00.678Z,8.10
2018-12-12T09:57:08.120Z,10.63
2018-12-12T09:59:41.400Z,10.37
2018-12-12T10:02:17.752Z,8.93
2018-12-12T10:05:01.841Z,9.33
2018-12-12T10:07:38.925Z,8.00
2018-12-12T10:10:10.882Z,9.10
2018-12-12T10:12:46.404Z,10.00
2018-12-12T10:15:23.857Z,9.63
2018-12-12T10:18:01.037Z,9.00
2018-12-12T10:20:37.346Z,8.33
2018-12-12T10:23:13.634Z,7.40
2018-12-12T10:25:49.667Z,8.83
2018-12-12T10:28:23.398Z,8.50
2018-12-12T10:31:11.915Z,7.03
2018-12-12T10:33:47.774Z,7.70
2018-12-12T10:36:27.273Z,26.53
2018-12-12T10:39:05.673Z,51.60
2018-12-12T10:41:41.032Z,8.63
2018-12-12T10:44:22.677Z,6.57
2018-12-12T10:46:58.658Z,7.83
2018-12-12T10:49:31.876Z,4.93
2018-12-12T10:52:07.516Z,9.10
2018-12-12T10:54:43.816Z,8.80
2018-12-12T10:57:24.144Z,5.03
2018-12-12T11:00:03.755Z,5.93
2018-12-12T11:02:51.260Z,5.13
2018-12-12T11:05:26.796Z,6.73
2018-12-12T11:08:03.089Z,14.03
2018-12-12T11:10:35.192Z,7.47
2018-12-12T11:13:06.512Z,3.33
2018-12-12T11:15:44.739Z,3.77
2018-12-12T11:18:21.000Z,3.20
2018-12-12T11:21:03.259Z,3.87
2018-12-12T11:23:38.932Z,3.33
2018-12-12T11:26:12.700Z,3.37
2018-12-12T11:28:51.030Z,3.50
2018-12-12T11:31:27.071Z,5.10
2018-12-12T11:34:04.753Z,3.00
2018-12-12T11:36:44.246Z,3.77
2018-12-12T11:39:16.263Z,3.67
2018-12-12T11:42:00.005Z,3.40
2018-12-12T11:44:33.573Z,3.83
2018-12-12T11:47:09.193Z,3.63
2018-12-12T11:49:45.481Z,6.70
2018-12-12T11:52:18.280Z,7.17
2018-12-12T11:54:54.327Z,4.23
2018-12-12T11:57:31.456Z,2.97
2018-12-12T12:00:09.675Z,4.03
2018-12-12T12:03:02.137Z,3.07
2018-12-12T12:05:44.342Z,4.13
2018-12-12T12:08:18.009Z,2.77
2018-12-12T12:10:53.806Z,4.93
2018-12-12T12:13:32.937Z,4.03
2018-12-12T12:16:14.761Z,3.93
2018-12-12T12:18:56.795Z,3.60
2018-12-12T12:21:32.380Z,4.77
2018-12-12T12:24:08.603Z,5.20
2018-12-12T12:26:44.692Z,4.40
2018-12-12T12:29:21.769Z,3.90
2018-12-12T12:31:55.272Z,4.30
2018-12-12T12:34:33.419Z,5.37
2018-12-12T12:37:12.788Z,5.33
2018-12-12T12:39:48.457Z,9.60
2018-12-12T12:42:28.436Z,5.17
2018-12-12T12:45:07.438Z,6.97
2018-12-12T12:47:43.502Z,4.33
2018-12-12T12:50:23.412Z,3.70
2018-12-12T12:52:58.781Z,3.80
2018-12-12T12:55:35.012Z,3.37
2018-12-12T12:58:13.220Z,3.23
2018-12-12T13:00:55.536Z,3.13
2018-12-12T13:03:32.624Z,3.33
2018-12-12T13:06:06.664Z,5.33
2018-12-12T13:08:42.738Z,4.50
2018-12-12T13:11:25.075Z,6.87
2018-12-12T13:14:02.435Z,4.10
2018-12-12T13:16:34.180Z,3.50
2018-12-12T13:19:10.211Z,5.03
2018-12-12T13:21:43.872Z,3.90
2018-12-12T13:24:15.180Z,3.67
2018-12-12T13:26:56.849Z,4.30
2018-12-12T13:29:30.659Z,2.80
2018-12-12T13:32:18.470Z,4.63
2018-12-12T13:34:54.328Z,3.10
2018-12-12T13:37:27.427Z,3.47
2018-12-12T13:40:15.322Z,3.10
2018-12-12T13:42:49.583Z,3.20
2018-12-12T13:45:25.430Z,4.40
2018-12-12T13:48:02.852Z,4.37
2018-12-12T13:50:42.197Z,3.10
2018-12-12T13:53:16.107Z,4.43
2018-12-12T13:55:55.890Z,3.90
2018-12-12T13:58:44.436Z,3.93
2018-12-12T14:01:30.992Z,4.03
2018-12-12T14:04:22.473Z,3.83
2018-12-12T14:07:02.091Z,4.00
2018-12-12T14:09:47.471Z,3.80
2018-12-12T14:12:28.852Z,3.70
2018-12-12T14:15:07.460Z,4.13
2018-12-12T14:17:44.116Z,3.43
2018-12-12T14:20:23.588Z,3.77
2018-12-12T14:23:07.166Z,4.17
2018-12-12T14:25:42.977Z,4.10
2018-12-12T14:28:21.364Z,3.90
2018-12-12T14:31:03.797Z,3.77
2018-12-12T14:33:43.620Z,3.80
2018-12-12T14:36:26.056Z,3.00
2018-12-12T14:39:02.160Z,4.30
2018-12-12T14:41:42.339Z,3.23
2018-12-12T14:44:22.198Z,3.93
2018-12-12T14:46:58.762Z,4.27
2018-12-12T14:49:34.553Z,10.00
2018-12-12T14:52:11.802Z,11.20
2018-12-12T14:54:47.449Z,8.70
2018-12-12T14:57:24.525Z,8.30
2018-12-12T14:59:56.467Z,6.80
2018-12-12T15:02:38.272Z,4.30
2018-12-12T15:05:20.523Z,4.50
2018-12-12T15:08:02.535Z,4.50
2018-12-12T15:10:36.075Z,4.50
2018-12-12T15:13:23.649Z,4.17
2018-12-12T15:19:01.359Z,5.20
2018-12-12T15:21:40.447Z,6.73
2018-12-12T15:24:18.893Z,5.60
2018-12-12T15:26:59.582Z,6.10
2018-12-12T15:29:42.297Z,4.20
2018-12-12T15:32:32.138Z,2.90
2018-12-12T15:35:17.507Z,3.17
2018-12-12T15:37:56.493Z,6.43
2018-12-12T15:40:32.308Z,12.90
2018-12-12T15:43:08.737Z,4.53
2018-12-12T15:45:45.452Z,3.63
2018-12-12T15:48:23.332Z,3.57
2018-12-12T15:51:00.165Z,3.30
2018-12-12T15:53:36.376Z,3.37
2018-12-12T15:56:15.468Z,3.47
2018-12-12T15:58:51.689Z,3.60
2018-12-12T16:01:28.996Z,3.60
2018-12-12T16:06:38.764Z,5.57
2018-12-12T16:09:10.302Z,3.53
2018-12-12T16:11:54.145Z,5.10
2018-12-12T16:14:25.841Z,3.67
2018-12-12T16:17:07.708Z,3.87
2018-12-12T16:19:43.545Z,4.00
2018-12-12T16:22:18.885Z,2.97
2018-12-12T16:24:56.112Z,4.20
2018-12-12T16:27:42.491Z,4.07
2018-12-12T16:30:20.392Z,5.20
2018-12-12T16:32:53.792Z,5.33
2018-12-12T16:35:29.268Z,4.80
2018-12-12T16:38:05.440Z,3.40
2018-12-12T16:43:35.560Z,3.23
2018-12-12T16:46:10.696Z,6.33
2018-12-12T16:48:44.283Z,5.70
2018-12-12T16:51:17.739Z,4.10
2018-12-12T16:53:50.897Z,4.80
2018-12-12T16:56:24.472Z,4.60
2018-12-12T16:59:02.653Z,6.57
2018-12-12T17:01:38.076Z,13.77
2018-12-12T17:04:13.552Z,6.33
2018-12-12T17:06:48.870Z,6.90
2018-12-12T17:09:20.748Z,4.17
2018-12-12T17:12:04.612Z,4.33
2018-12-12T17:14:40.648Z,4.70
2018-12-12T17:17:16.899Z,8.10
2018-12-12T17:19:52.200Z,8.10
2018-12-12T17:22:26.140Z,8.70
2018-12-12T17:24:57.603Z,8.50
2018-12-12T17:27:28.873Z,8.47
2018-12-12T17:30:01.968Z,8.33
2018-12-12T17:32:35.244Z,9.47
2018-12-12T17:35:09.028Z,6.30
2018-12-12T17:37:45.574Z,4.80
2018-12-12T17:40:18.856Z,8.93
2018-12-12T17:42:52.421Z,3.00
2018-12-12T17:48:41.940Z,3.83
2018-12-12T17:51:20.825Z,8.60
2018-12-12T17:53:54.835Z,6.07
2018-12-12T17:56:30.559Z,7.43
2018-12-12T18:02:03.711Z,5.60
2018-12-12T18:04:59.761Z,7.80
2018-12-12T18:07:35.443Z,9.33
2018-12-12T18:10:21.739Z,9.30
2018-12-12T18:13:02.596Z,6.53
2018-12-12T18:15:37.684Z,8.27
2018-12-12T18:18:15.557Z,20.43
2018-12-12T18:20:57.961Z,15.30
2018-12-12T18:23:31.952Z,10.47
2018-12-12T18:26:09.599Z,5.80
2018-12-12T18:28:49.469Z,7.40
2018-12-12T18:31:25.679Z,11.47
2018-12-12T18:34:22.471Z,7.63
2018-12-12T18:36:58.037Z,4.43
2018-12-12T18:39:34.139Z,5.13
2018-12-12T18:42:10.358Z,5.50
2018-12-12T18:44:49.847Z,2.87
2018-12-12T18:47:25.961Z,13.47
2018-12-12T18:50:03.304Z,17.13
2018-12-12T18:52:37.307Z,9.53
2018-12-12T18:55:19.283Z,8.80
2018-12-12T18:58:03.416Z,16.37
2018-12-12T19:00:43.203Z,12.70
2018-12-12T19:03:19.552Z,10.77
2018-12-12T19:05:53.268Z,8.33
2018-12-12T19:08:29.312Z,5.50
2018-12-12T19:11:09.628Z,9.23
2018-12-12T19:13:43.531Z,5.90
2018-12-12T19:16:16.864Z,7.03
2018-12-12T19:18:51.085Z,5.90
2018-12-12T19:21:24.237Z,6.30
2018-12-12T19:23:57.551Z,6.70
2018-12-12T19:26:33.158Z,5.13
2018-12-12T19:29:16.593Z,6.17
2018-12-12T19:32:02.681Z,13.00
2018-12-12T19:34:36.443Z,8.50
2018-12-12T19:37:09.734Z,6.27
2018-12-12T19:39:45.307Z,5.90
2018-12-12T19:42:33.518Z,4.20
2018-12-12T19:45:15.603Z,3.13
2018-12-12T19:47:52.013Z,3.23
2018-12-12T19:50:27.906Z,2.83
2018-12-12T19:52:59.961Z,2.70
2018-12-12T19:55:44.392Z,2.77
2018-12-12T19:58:15.980Z,2.20
2018-12-12T20:00:47.724Z,3.33
2018-12-12T20:03:21.013Z,2.50
2018-12-12T20:05:56.618Z,6.43
2018-12-12T20:08:34.284Z,4.10
2018-12-12T20:11:10.372Z,2.90
2018-12-12T20:16:16.950Z,4.07
2018-12-12T20:18:55.291Z,3.40
2018-12-12T20:21:27.181Z,2.50
2018-12-12T20:24:00.460Z,2.47
2018-12-12T20:26:36.360Z,1.97
2018-12-12T20:29:19.876Z,2.63
2018-12-12T20:31:53.825Z,2.23
2018-12-12T20:34:33.178Z,2.87
2018-12-12T20:37:08.779Z,2.20
2018-12-12T20:39:40.609Z,2.27
2018-12-12T20:42:16.498Z,3.00
2018-12-12T20:44:50.485Z,15.17
2018-12-12T20:47:25.836Z,11.10
2018-12-12T20:49:59.755Z,11.27
2018-12-12T20:52:33.287Z,19.67
2018-12-12T20:55:09.637Z,7.57
2018-12-12T20:57:43.160Z,9.23
2018-12-12T21:00:18.764Z,9.80
2018-12-12T21:03:02.322Z,7.27
2018-12-12T21:05:38.311Z,6.97
2018-12-12T21:08:15.623Z,6.70
2018-12-12T21:10:57.974Z,8.20
2018-12-12T21:13:40.168Z,7.77
2018-12-12T21:18:45.151Z,2.93
2018-12-12T21:21:20.775Z,5.63
2018-12-12T21:23:56.535Z,4.87
2018-12-12T21:26:38.117Z,3.77
2018-12-12T21:29:20.412Z,3.33
2018-12-12T21:31:54.251Z,5.93
2018-12-12T21:34:36.224Z,9.23
2018-12-12T21:37:13.972Z,6.40
2018-12-12T21:39:50.029Z,5.43
2018-12-12T21:42:26.143Z,5.60
2018-12-12T21:45:02.392Z,7.97
2018-12-12T21:47:38.448Z,5.73
2018-12-12T21:50:12.468Z,4.57
2018-12-12T21:52:47.884Z,6.07
2018-12-12T21:55:21.876Z,4.90
2018-12-12T21:57:57.627Z,5.13
2018-12-12T22:00:31.164Z,6.20
2018-12-12T22:03:05.184Z,10.37
2018-12-12T22:05:36.559Z,10.30
2018-12-12T22:08:24.927Z,12.83
2018-12-12T22:11:04.870Z,21.17
2018-12-12T22:13:39.222Z,37.50
2018-12-12T22:16:20.335Z,37.97
2018-12-12T22:18:54.195Z,27.40
2018-12-12T22:21:25.997Z,15.27
2018-12-12T22:23:58.433Z,13.80
2018-12-12T22:26:36.656Z,10.73
2018-12-12T22:29:12.136Z,26.47
2018-12-12T22:32:00.442Z,13.93
2018-12-12T22:34:36.285Z,11.27
2018-12-12T22:37:24.674Z,7.80
2018-12-12T22:39:56.367Z,44.10
2018-12-12T22:42:29.915Z,19.60
2018-12-12T22:45:09.412Z,24.10
2018-12-12T22:47:45.648Z,8.27
2018-12-12T22:50:21.830Z,8.00
2018-12-12T22:53:02.116Z,6.87
2018-12-12T22:55:34.467Z,20.40
2018-12-12T22:58:08.564Z,20.00
2018-12-12T23:00:53.432Z,16.63
2018-12-12T23:03:31.522Z,7.47
2018-12-12T23:06:08.254Z,6.03
2018-12-12T23:08:43.843Z,5.60
2018-12-12T23:11:20.076Z,3.83
2018-12-12T23:13:56.365Z,3.47
2018-12-12T23:16:32.236Z,3.67
2018-12-12T23:19:03.440Z,4.00
2018-12-12T23:21:36.945Z,2.83
2018-12-12T23:24:10.456Z,3.70
2018-12-12T23:26:42.271Z,3.60
2018-12-12T23:29:30.728Z,4.30
2018-12-12T23:32:04.319Z,3.37
2018-12-12T23:34:39.947Z,4.03
2018-12-12T23:37:16.609Z,4.47
2018-12-12T23:39:50.135Z,4.20
2018-12-12T23:42:23.432Z,3.67
2018-12-12T23:44:58.841Z,4.90
2018-12-12T23:47:32.924Z,4.70
2018-12-12T23:50:08.692Z,4.30
2018-12-12T23:53:00.894Z,3.80
2018-12-12T23:55:43.087Z,3.60
2018-12-12T23:58:23.006Z,3.63
